Hlavní strana
METAR-TAF:

METAR-TAF

Letiště :

Spokaneské mezinárodní letiště

Spokane, Washington, Spojené státy americké

zeměpisná šířka: 47-37-17N, zeměpisná délka: 117-31-40W, výška: 723 m

Aktuální stav počasí

Zpráva byla vytvořena před 38 minutami, v 17:53 UTC
Severovýchodní vítr 8 kt
Teplota 8°C
Vlhkost vzduchu 53%
Tlak 1031 hPa
Viditelnost: 16.1 km
Skoro jasno ve výšce 25000 ft

METAR: KGEG 161753Z 04008KT 10SM FEW250 08/M01 A3045 RMK AO2 SLP320 T00831006 10083 20011 50003

Čas: 11:31 (18:31 UTC)

Předpověď počasí

Zpráva byla vytvořena před 1 hodinou a 4 minutami, v 17:27 UTC
Předpověď platná od 16 v 18 UTC do 17 v 18 UTC
Severovýchodní vítr 6 kt
Viditelnost: 10 km
Jasno

TAF: KGEG 161727Z 1618/1718 04006KT P6SM SKC

Stav a předpovědi počasí z více než 4 000 letišť (zprávy METAR a TAF).

Červené a žluté tečky na mapě představují dostupné meteorologické stanice.

Když kurzor umístíte na tečku, zobrazí se název stanice.

Pak kliknutím zobrazíte stav a předpověď počasí.

Chcete-li změnit mapu, kliknutím na zelené tlačítko se znaménkem +mapu přiblížíte, kliknutím na zelené tlačítko se znaménkem – mapu oddálíte a kliknutím na zelené šipky přejdete na sousední mapy.


METAR-TAF: